createdAt,value
2023-04-30T00:02:46.814Z,8.37
2023-04-30T00:06:50.330Z,8.10
2023-04-30T00:10:51.919Z,8.17
2023-04-30T00:14:52.713Z,7.27
2023-04-30T00:18:53.116Z,6.67
2023-04-30T00:22:56.427Z,7.83
2023-04-30T00:26:57.112Z,7.70
2023-04-30T00:30:57.800Z,7.63
2023-04-30T00:34:58.215Z,7.57
2023-04-30T00:39:01.181Z,7.87
2023-04-30T00:43:01.377Z,7.93
2023-04-30T00:47:04.165Z,7.77
2023-04-30T00:51:07.576Z,8.00
2023-04-30T00:55:12.396Z,7.53
2023-04-30T00:59:13.713Z,7.47
2023-04-30T01:03:14.091Z,8.40
2023-04-30T01:07:14.613Z,7.77
2023-04-30T01:11:27.261Z,8.50
2023-04-30T01:15:37.827Z,7.67
2023-04-30T01:19:45.448Z,8.00
2023-04-30T01:24:09.424Z,8.17
2023-04-30T01:28:17.623Z,8.10
2023-04-30T01:32:18.641Z,8.43
2023-04-30T01:36:38.029Z,8.50
2023-04-30T01:40:56.106Z,9.37
2023-04-30T01:45:25.884Z,9.97
2023-04-30T01:49:41.057Z,10.20
2023-04-30T01:53:47.385Z,10.10
2023-04-30T01:57:58.690Z,8.73
2023-04-30T02:02:01.874Z,9.93
2023-04-30T02:06:02.194Z,10.10
2023-04-30T02:10:02.481Z,9.00
2023-04-30T02:14:03.252Z,10.40
2023-04-30T02:18:06.260Z,9.87
2023-04-30T02:22:06.494Z,10.50
2023-04-30T02:26:06.700Z,10.47
2023-04-30T02:30:08.384Z,9.43
2023-04-30T02:34:11.284Z,10.47
2023-04-30T02:38:11.529Z,10.53
2023-04-30T02:42:11.766Z,11.83
2023-04-30T02:46:12.075Z,10.53
2023-04-30T02:50:15.078Z,11.97
2023-04-30T02:54:15.437Z,11.47
2023-04-30T02:58:15.880Z,10.97
2023-04-30T03:02:16.973Z,11.10
2023-04-30T03:06:20.072Z,11.20
2023-04-30T03:10:20.485Z,9.60
2023-04-30T03:14:21.094Z,9.77
2023-04-30T03:18:22.468Z,11.30
2023-04-30T03:22:26.876Z,11.33
2023-04-30T03:26:27.460Z,11.87
2023-04-30T03:30:28.077Z,11.47
2023-04-30T03:34:28.719Z,11.63
2023-04-30T03:38:31.727Z,12.00
2023-04-30T03:42:32.004Z,11.07
2023-04-30T03:46:32.480Z,11.17
2023-04-30T03:50:33.099Z,10.80
2023-04-30T03:54:36.664Z,11.77
2023-04-30T03:58:39.111Z,12.43
2023-04-30T04:02:39.571Z,12.13
2023-04-30T04:06:42.735Z,11.20
2023-04-30T04:10:46.007Z,12.67
2023-04-30T04:14:46.505Z,12.33
2023-04-30T04:18:47.288Z,13.93
2023-04-30T04:22:47.737Z,12.53
2023-04-30T04:26:50.845Z,12.97
2023-04-30T04:30:51.311Z,12.13
2023-04-30T04:34:51.649Z,11.27
2023-04-30T04:38:51.998Z,10.20
2023-04-30T04:42:56.045Z,11.67
2023-04-30T04:46:56.976Z,12.60
2023-04-30T04:50:57.997Z,12.80
2023-04-30T04:54:58.861Z,11.47
2023-04-30T04:59:03.014Z,12.57
2023-04-30T05:03:03.473Z,11.87
2023-04-30T05:07:04.182Z,11.03
2023-04-30T05:11:04.633Z,12.97
2023-04-30T05:15:08.978Z,12.27
2023-04-30T05:19:09.962Z,13.20
2023-04-30T05:23:11.135Z,12.80
2023-04-30T05:27:12.013Z,11.60
2023-04-30T05:31:14.885Z,11.90
2023-04-30T05:35:15.309Z,11.67
2023-04-30T05:39:15.476Z,11.83
2023-04-30T05:43:16.309Z,12.50
2023-04-30T05:47:19.458Z,12.50
2023-04-30T05:51:19.678Z,12.87
2023-04-30T05:55:20.509Z,12.67
2023-04-30T05:59:20.823Z,12.53
2023-04-30T06:03:24.178Z,13.33
2023-04-30T06:07:25.126Z,13.93
2023-04-30T06:11:25.843Z,13.97
2023-04-30T06:15:26.205Z,13.20
2023-04-30T06:19:29.179Z,12.93
2023-04-30T06:23:29.416Z,12.40
2023-04-30T06:27:30.039Z,13.33
2023-04-30T06:31:30.592Z,13.17
2023-04-30T06:35:33.553Z,13.10
2023-04-30T06:39:33.730Z,13.13
2023-04-30T06:43:33.956Z,12.93
2023-04-30T06:47:36.493Z,13.00
2023-04-30T06:51:39.529Z,12.00
2023-04-30T06:55:39.631Z,12.13
2023-04-30T06:59:40.018Z,12.17
2023-04-30T07:03:40.331Z,12.10
2023-04-30T07:07:43.947Z,12.10
2023-04-30T07:11:44.499Z,11.77
2023-04-30T07:15:45.931Z,10.90
2023-04-30T07:19:46.974Z,11.03
2023-04-30T07:23:51.740Z,10.73
2023-04-30T07:27:51.930Z,10.30
2023-04-30T07:31:52.100Z,10.27
2023-04-30T07:35:52.779Z,10.53
2023-04-30T07:39:55.785Z,9.83
2023-04-30T07:43:57.003Z,10.03
2023-04-30T07:47:57.286Z,9.63
2023-04-30T07:51:57.803Z,9.63
2023-04-30T07:56:00.621Z,9.00
2023-04-30T08:00:01.180Z,8.52
2023-04-30T08:04:01.638Z,7.70
2023-04-30T08:08:02.094Z,7.85
2023-04-30T08:12:05.265Z,7.20
2023-04-30T08:16:05.566Z,7.50
2023-04-30T08:20:09.756Z,6.57
2023-04-30T08:24:10.005Z,6.15
2023-04-30T08:28:12.981Z,5.93
2023-04-30T08:32:13.349Z,6.18
2023-04-30T08:36:13.774Z,6.30
2023-04-30T08:40:16.676Z,5.80
2023-04-30T08:44:19.835Z,5.63
2023-04-30T08:48:23.730Z,6.32
2023-04-30T08:52:26.082Z,4.78
2023-04-30T08:56:26.601Z,4.72
2023-04-30T09:00:30.380Z,5.03
2023-04-30T09:04:30.865Z,5.05
2023-04-30T09:08:47.143Z,4.47
2023-04-30T09:13:01.636Z,4.60
2023-04-30T09:17:04.520Z,4.05
2023-04-30T09:21:08.379Z,4.55
2023-04-30T09:25:11.534Z,3.90
2023-04-30T09:29:11.994Z,3.90
2023-04-30T09:33:15.022Z,3.78
2023-04-30T09:37:16.127Z,2.92
2023-04-30T09:41:29.181Z,3.00
2023-04-30T09:45:30.761Z,3.50
2023-04-30T09:49:35.076Z,2.80
2023-04-30T09:53:40.872Z,3.28
2023-04-30T09:57:41.519Z,3.40
2023-04-30T10:01:42.716Z,3.30
2023-04-30T10:05:48.859Z,3.13
2023-04-30T10:09:54.270Z,2.80
2023-04-30T10:14:02.220Z,3.10
2023-04-30T10:18:09.196Z,3.30
2023-04-30T10:22:13.659Z,2.83
2023-04-30T10:26:14.415Z,2.78
2023-04-30T10:30:16.613Z,3.63
2023-04-30T10:34:31.925Z,3.42
2023-04-30T10:38:38.331Z,3.10
2023-04-30T10:42:40.179Z,3.85
2023-04-30T10:46:41.321Z,3.63
2023-04-30T10:50:47.030Z,3.45
2023-04-30T10:54:53.779Z,3.08
2023-04-30T10:58:54.395Z,3.10
2023-04-30T11:03:10.727Z,3.20
2023-04-30T11:07:13.750Z,2.85
2023-04-30T11:11:24.168Z,3.08
2023-04-30T11:15:28.617Z,2.72
2023-04-30T11:19:30.853Z,3.10
2023-04-30T11:23:39.401Z,3.28
2023-04-30T11:27:46.851Z,2.80
2023-04-30T11:31:48.111Z,3.00
2023-04-30T11:35:49.636Z,2.90
2023-04-30T11:39:51.453Z,2.42
2023-04-30T11:43:54.320Z,2.30
2023-04-30T11:47:57.899Z,2.10
2023-04-30T11:51:59.047Z,1.98
2023-04-30T11:55:59.545Z,1.85
2023-04-30T12:00:15.720Z,2.60
2023-04-30T12:04:17.341Z,2.20
2023-04-30T12:08:17.933Z,2.00
2023-04-30T12:12:28.989Z,2.13
2023-04-30T12:16:42.933Z,2.05
2023-04-30T12:20:44.502Z,2.30
2023-04-30T12:24:46.172Z,2.00
2023-04-30T12:28:46.492Z,2.10
2023-04-30T12:32:54.121Z,1.75
2023-04-30T12:36:54.678Z,1.83
2023-04-30T12:40:55.210Z,1.85
2023-04-30T12:44:55.470Z,2.20
2023-04-30T12:49:00.171Z,2.08
2023-04-30T12:53:05.692Z,2.20
2023-04-30T12:57:08.621Z,2.25
2023-04-30T13:01:14.275Z,2.33
2023-04-30T13:05:17.395Z,2.13
2023-04-30T13:09:17.718Z,2.25
2023-04-30T13:13:21.674Z,2.30
2023-04-30T13:17:22.906Z,2.10
2023-04-30T13:21:25.750Z,1.98
2023-04-30T13:25:26.030Z,1.92
2023-04-30T13:29:26.386Z,1.80
2023-04-30T13:33:26.962Z,1.73
2023-04-30T13:37:32.247Z,1.80
2023-04-30T13:41:32.356Z,1.67
2023-04-30T13:45:32.899Z,1.70
2023-04-30T13:49:33.112Z,1.50
2023-04-30T13:53:36.853Z,1.40
2023-04-30T13:57:37.018Z,1.50
2023-04-30T14:01:38.230Z,1.60
2023-04-30T14:05:39.541Z,1.60
2023-04-30T14:09:42.475Z,1.52
2023-04-30T14:13:42.623Z,1.63
2023-04-30T14:17:42.756Z,1.88
2023-04-30T14:21:43.066Z,1.80
2023-04-30T14:25:46.190Z,1.60
2023-04-30T14:29:46.469Z,1.60
2023-04-30T14:33:46.888Z,1.67
2023-04-30T14:37:47.284Z,1.73
2023-04-30T14:41:51.590Z,1.60
2023-04-30T14:45:52.058Z,1.20
2023-04-30T14:49:53.655Z,1.60
2023-04-30T14:53:54.168Z,1.30
2023-04-30T14:57:56.964Z,7.45
2023-04-30T15:01:57.504Z,2.55
2023-04-30T15:05:58.136Z,1.52
2023-04-30T15:09:59.036Z,4.03
2023-04-30T15:14:01.981Z,1.90
2023-04-30T15:18:04.216Z,1.40
2023-04-30T15:22:04.454Z,5.45
2023-04-30T15:26:05.522Z,2.80
2023-04-30T15:30:12.661Z,1.80
2023-04-30T15:34:12.930Z,1.50
2023-04-30T15:38:13.155Z,1.10
2023-04-30T15:42:14.041Z,1.30
2023-04-30T15:46:17.155Z,1.25
2023-04-30T15:50:17.628Z,1.48
2023-04-30T15:54:18.137Z,1.90
2023-04-30T15:58:18.760Z,2.25
2023-04-30T16:02:22.342Z,2.03
2023-04-30T16:06:23.150Z,2.25
2023-04-30T16:10:23.751Z,1.35
2023-04-30T16:14:24.258Z,1.40
2023-04-30T16:18:30.019Z,1.30
2023-04-30T16:22:31.091Z,1.48
2023-04-30T16:26:31.179Z,1.45
2023-04-30T16:30:31.966Z,1.40
2023-04-30T16:34:35.000Z,1.55
2023-04-30T16:38:36.072Z,1.60
2023-04-30T16:42:38.060Z,1.30
2023-04-30T16:46:41.397Z,1.73
2023-04-30T16:50:44.197Z,1.10
2023-04-30T16:54:44.419Z,1.45
2023-04-30T16:58:44.579Z,1.30
2023-04-30T17:02:45.867Z,1.30
2023-04-30T17:06:49.586Z,3.42
2023-04-30T17:10:49.872Z,2.10
2023-04-30T17:14:50.379Z,2.00
2023-04-30T17:18:50.575Z,1.10
2023-04-30T17:22:53.736Z,1.30
2023-04-30T17:26:55.250Z,1.55
2023-04-30T17:30:56.734Z,4.43
2023-04-30T17:34:58.066Z,1.65
2023-04-30T17:39:04.330Z,6.70
2023-04-30T17:43:04.903Z,1.40
2023-04-30T17:47:05.819Z,1.10
2023-04-30T17:51:06.856Z,1.25
2023-04-30T17:55:11.876Z,1.45
2023-04-30T17:59:12.807Z,9.35
2023-04-30T18:03:13.511Z,1.70
2023-04-30T18:07:13.868Z,44.65
2023-04-30T18:11:17.182Z,34.47
2023-04-30T18:15:17.604Z,46.63
2023-04-30T18:19:18.306Z,9.68
2023-04-30T18:23:19.014Z,1.92
2023-04-30T18:27:22.072Z,1.25
2023-04-30T18:31:22.721Z,1.50
2023-04-30T18:35:23.454Z,1.30
2023-04-30T18:39:24.168Z,1.20
2023-04-30T18:43:27.289Z,1.25
2023-04-30T18:47:27.844Z,1.30
2023-04-30T18:51:28.497Z,1.10
2023-04-30T18:55:28.908Z,1.10
2023-04-30T18:59:32.234Z,1.93
2023-04-30T19:03:34.152Z,1.90
2023-04-30T19:07:35.054Z,1.00
2023-04-30T19:11:36.342Z,1.10
2023-04-30T19:15:39.622Z,1.20
2023-04-30T19:19:39.952Z,1.50
2023-04-30T19:23:40.706Z,1.30
2023-04-30T19:27:41.241Z,1.57
2023-04-30T19:31:44.410Z,1.30
2023-04-30T19:35:44.982Z,1.40
2023-04-30T19:39:46.311Z,1.33
2023-04-30T19:43:46.590Z,1.30
2023-04-30T19:47:49.955Z,1.37
2023-04-30T19:51:50.542Z,1.10
2023-04-30T19:55:52.076Z,1.20
2023-04-30T19:59:52.887Z,1.50
2023-04-30T20:03:56.063Z,1.57
2023-04-30T20:07:56.504Z,1.17
2023-04-30T20:11:58.100Z,2.50
2023-04-30T20:15:58.897Z,4.03
2023-04-30T20:20:03.281Z,3.40
2023-04-30T20:24:04.739Z,2.50
2023-04-30T20:28:05.153Z,2.27
2023-04-30T20:32:05.692Z,2.77
2023-04-30T20:36:08.985Z,2.20
2023-04-30T20:40:11.863Z,1.83
2023-04-30T20:44:13.293Z,2.10
2023-04-30T20:48:14.300Z,2.00
2023-04-30T20:52:18.922Z,2.00
2023-04-30T20:56:19.555Z,2.40
2023-04-30T21:00:20.340Z,2.33
2023-04-30T21:04:20.905Z,2.27
2023-04-30T21:08:24.304Z,2.37
2023-04-30T21:12:24.594Z,3.63
2023-04-30T21:16:24.851Z,3.63
2023-04-30T21:20:25.036Z,3.50
2023-04-30T21:24:27.841Z,3.63
2023-04-30T21:28:28.142Z,3.83
2023-04-30T21:32:28.489Z,3.20
2023-04-30T21:36:30.288Z,3.20
2023-04-30T21:40:34.982Z,3.67
2023-04-30T21:44:36.319Z,2.73
2023-04-30T21:48:38.790Z,2.90
2023-04-30T21:52:39.038Z,2.40
2023-04-30T21:56:42.893Z,2.70
2023-04-30T22:00:43.666Z,3.10
2023-04-30T22:04:43.933Z,3.13
2023-04-30T22:08:44.416Z,3.60
2023-04-30T22:12:48.277Z,3.30
2023-04-30T22:16:48.661Z,3.60
2023-04-30T22:20:52.168Z,2.97
2023-04-30T22:24:52.615Z,2.40
2023-04-30T22:28:55.680Z,2.63
2023-04-30T22:32:59.265Z,2.60
2023-04-30T22:36:59.690Z,2.60
2023-04-30T22:41:01.345Z,3.33
2023-04-30T22:45:04.457Z,5.87
2023-04-30T22:49:05.665Z,5.40
2023-04-30T22:53:06.561Z,5.33
2023-04-30T22:57:06.791Z,4.33
2023-04-30T23:01:09.684Z,5.47
2023-04-30T23:05:12.067Z,4.87
2023-04-30T23:09:13.074Z,3.93
2023-04-30T23:13:13.298Z,3.67
2023-04-30T23:17:16.572Z,3.10
2023-04-30T23:21:17.141Z,2.57
2023-04-30T23:25:17.671Z,2.90
2023-04-30T23:29:17.906Z,3.17
2023-04-30T23:33:20.896Z,2.30
2023-04-30T23:37:21.235Z,3.07
2023-04-30T23:41:21.416Z,2.60
2023-04-30T23:45:22.574Z,2.60
2023-04-30T23:49:25.757Z,2.80
2023-04-30T23:53:26.714Z,2.90
2023-04-30T23:57:28.278Z,2.90
